Waimea, HI

03:06 AM HST am 21. April 2015 (GMT -1000)
Waimea, Hi 96796 | | Change Station
CLOSE
Current Station
Persönliche Wetterstationen
Location: Waimea, HI
Höhe: 60 ft
Wetterstationen in der Umgebung

Höhe 60 ft 21.95 °N, 159.67 °W | Updated 1 minute ago

Clear
Heiter
73.7 °F
gefühlte 76 °F
N
5.0
Wind Wechselnd Wind aus Ost-Nordost
Gusts 15.0 mph

Heute
Max. -- | schwach -- °F
--% Regenrisiko
Gestern
Max. -- | schwach -- °F
Precip. -- inch
6:14 AM 7:00 PM
Erstes Viertel, 10% visible
Druck 30.03 inch
Sichtweite 10.0 Meilen
Wolken Heiter
Hitzeindex 76 °F
Taupunkt 62 °F
Feuchtigkeit 68%
Regen 0.00 inch
Schneehöhe Nicht verfügbar..
UV 0 von 12
Pollen Nicht verfügbar..
Luftqualität Nicht verfügbar..
Flu Activity Regional
METAR PHBK 211256Z AUTO 13004KT 10SM CLR 19/13 A3002 RMK AO2 SLP167 T01890133

More Conditions Fewer Conditions

Druck 30.03 inch
Sichtweite 10.0 Meilen
Wolken Heiter
Hitzeindex 76 °F
Taupunkt 62 °F
Feuchtigkeit 68%
Regen 0.00 inch
Schneehöhe Nicht verfügbar..
UV 0 von 12
Pollen Nicht verfügbar..
Luftqualität Nicht verfügbar..
Flu Activity Regional
METAR PHBK 211256Z AUTO 13004KT 10SM CLR 19/13 A3002 RMK AO2 SLP167 T01890133

More Conditions Fewer Conditions

10-Day Weather Forecast

Almanac

Astronomie

Apr. 21, 2015 Aufgang Untergang
Genaue Zeit
Bürgerliche Dämmerung
Nautische Dämmerung
Astronomische Dämmerung
Mond
Länge des sichtbaren Lichts
Tageslänge
Tomorrow will be .
, % of the Moon is Illuminated

Heutige Rekorde

State Highs State Lows

Community

WunderPhotos

Upload Photos

1,815,366 Fotos hochgeladen!

WunderBlogs® & News

Nearby

Luftqualität

  Luftqualität LQ Index Schadstoff
Not available.

Schneehöhe

Station Depth Höhe

Erdbebenaktivität

Stadt Distance Mag. Time & Date
Minimum magnitude displayed is 2.5.

küstennahe Wassertemperaturen

Ort Temperatur

Stations

Wetterstationen in der Umgebung

Stationsstandort Temp. Windchill Taupunkt Feuchtigkeit Wind Precip. Höhe Aktualisiert Art